Time;durP1;ratioP1;P1;durP2;ratioP2;P2;SDS_P1;SDS_P2;PMS_P1;PMS_P2;Temp;Humidity;BMP_temperature;BMP_pressure;BME280_temperature;BME280_humidity;BME280_pressure;Samples;Min_cycle;Max_cycle;Signal;HPM_P1;HPM_P2
2023/03/28 00:01:16;;;;;;;;;;;;;;;3.27;67.21;96284.75;6313256;28;20040;-70
2023/03/28 00:04:21;;;;;;;4.63;2.08;;;;;;;3.03;67.48;96300.56;6317314;28;20397;-69
2023/03/28 00:07:28;;;;;;;3.17;2.63;;;;;;;3.06;67.46;96290.03;6317507;28;20055;-69
2023/03/28 00:10:36;;;;;;;2.58;1.77;;;;;;;3.00;67.78;96292.91;6319153;28;20060;-70
2023/03/28 00:13:40;;;;;;;2.20;1.60;;;;;;;2.99;67.79;96293.78;6314595;28;20059;-70
2023/03/28 00:16:46;;;;;;;5.43;2.97;;;;;;;2.96;67.79;96288.72;6311521;28;20032;-69
2023/03/28 00:19:53;;;;;;;3.45;2.20;;;;;;;2.91;67.65;96290.69;6305845;28;20044;-69
2023/03/28 00:22:54;;;;;;;2.78;1.38;;;;;;;3.04;67.48;96307.44;6318931;28;20432;-70
2023/03/28 00:26:02;;;;;;;;;;;;;;;3.14;67.29;96293.13;6320225;28;20052;-69
2023/03/28 00:29:09;;;;;;;3.63;2.20;;;;;;;3.04;67.38;96293.59;6315032;28;19926;-70
2023/03/28 00:32:15;;;;;;;4.07;2.13;;;;;;;3.06;67.26;96300.41;6306227;28;20040;-70
2023/03/28 00:35:22;;;;;;;2.20;1.90;;;;;;;3.06;67.45;96310.81;6319364;28;20048;-70
2023/03/28 00:38:23;;;;;;;4.63;2.28;;;;;;;2.99;67.00;96290.34;6316222;28;20055;-70
2023/03/28 00:41:29;;;;;;;2.17;1.85;;;;;;;3.05;67.26;96303.91;6316714;28;20052;-69
2023/03/28 00:44:40;;;;;;;;;;;;;;;3.09;67.36;96295.09;6318276;28;20044;-69
2023/03/28 00:48:12;;;;;;;6.18;3.15;;;;;;;2.94;67.54;96295.75;6314504;28;19919;-69
2023/03/28 00:51:16;;;;;;;4.57;2.40;;;;;;;2.81;67.62;96294.59;6308856;28;20072;-70
2023/03/28 00:54:19;;;;;;;2.08;1.88;;;;;;;2.92;67.42;96292.38;6318050;28;20050;-69
2023/03/28 00:57:25;;;;;;;4.90;2.35;;;;;;;2.94;67.35;96290.53;6318275;28;20048;-70
2023/03/28 01:00:31;;;;;;;4.60;2.42;;;;;;;2.94;67.33;96293.13;6313485;28;20422;-69
2023/03/28 01:03:36;;;;;;;3.50;2.15;;;;;;;2.99;67.13;96292.94;6316287;28;20052;-70
2023/03/28 01:06:46;;;;;;;4.38;2.30;;;;;;;3.03;66.99;96290.16;6301266;28;20083;-70
2023/03/28 01:09:50;;;;;;;5.93;3.05;;;;;;;2.91;67.33;96290.69;6297726;28;20040;-70
2023/03/28 01:13:01;;;;;;;3.90;2.42;;;;;;;2.94;67.08;96285.34;6312206;28;20501;-71
2023/03/28 01:16:06;;;;;;;3.42;2.47;;;;;;;2.87;67.39;96289.13;6315868;28;20050;-70
2023/03/28 01:19:50;;;;;;;3.97;2.42;;;;;;;2.89;67.61;96292.53;6316910;28;20052;-70
2023/03/28 01:22:57;;;;;;;4.88;2.42;;;;;;;2.83;67.39;96292.75;6304566;28;20044;-70
2023/03/28 01:26:17;;;;;;;5.72;2.72;;;;;;;2.61;68.07;96288.50;6305813;28;20048;-69
2023/03/28 01:29:33;;;;;;;3.95;2.17;;;;;;;2.77;67.84;96293.03;6309115;28;20420;-70
2023/03/28 01:33:06;;;;;;;4.28;2.67;;;;;;;2.73;68.06;96291.50;6314243;28;20040;-71
2023/03/28 01:36:39;;;;;;;5.85;2.65;;;;;;;2.63;68.37;96281.50;6293682;28;20045;-70
2023/03/28 01:40:10;;;;;;;8.18;2.75;;;;;;;2.58;68.38;96283.44;6300988;28;20044;-70
2023/03/28 01:43:25;;;;;;;6.13;3.08;;;;;;;2.54;68.86;96291.44;6313171;28;20039;-69
2023/03/28 01:46:38;;;;;;;5.22;2.95;;;;;;;2.53;68.86;96290.59;6309645;28;20098;-70
2023/03/28 01:50:02;;;;;;;4.20;2.65;;;;;;;2.48;69.32;96295.13;6317363;28;20552;-69
2023/03/28 01:53:05;;;;;;;;;;;;;;;2.45;68.97;96292.66;6314527;28;20052;-69
2023/03/28 01:56:21;;;;;;;7.55;2.97;;;;;;;2.41;69.33;96288.50;6313113;28;19920;-70
2023/03/28 01:59:32;;;;;;;7.55;4.00;;;;;;;2.27;69.31;96288.25;6312075;28;20052;-69
2023/03/28 02:02:56;;;;;;;7.50;3.40;;;;;;;2.33;69.57;96295.78;6318484;28;20124;-69
2023/03/28 02:06:08;;;;;;;7.40;3.30;;;;;;;2.28;69.60;96295.97;6296643;28;20513;-69
2023/03/28 02:09:14;;;;;;;5.40;3.17;;;;;;;2.41;69.31;96291.13;6313120;28;20036;-69
2023/03/28 02:12:23;;;;;;;2.25;1.40;;;;;;;2.64;68.92;96288.38;6320356;28;20393;-68
2023/03/28 02:15:29;;;;;;;5.70;2.13;;;;;;;2.60;68.87;96281.59;6310964;28;20055;-68
2023/03/28 02:18:36;;;;;;;7.70;3.28;;;;;;;2.52;68.80;96278.53;6319282;28;20090;-69
2023/03/28 02:21:43;;;;;;;6.38;3.03;;;;;;;2.55;68.56;96283.59;6321556;28;20040;-69
2023/03/28 02:24:51;;;;;;;4.15;2.95;;;;;;;2.49;69.11;96289.00;6320618;28;20047;-69
2023/03/28 02:27:56;;;;;;;6.38;2.83;;;;;;;2.72;68.50;96289.78;6318618;28;20375;-68
2023/03/28 02:31:00;;;;;;;6.90;2.70;;;;;;;2.73;68.48;96296.69;6316382;28;20036;-68
2023/03/28 02:34:07;;;;;;;5.43;2.42;;;;;;;2.80;68.52;96298.09;6321595;28;20047;-70
2023/03/28 02:37:29;;;;;;;3.30;2.10;;;;;;;2.85;68.10;96301.34;6319803;28;20043;-70
2023/03/28 02:40:35;;;;;;;6.50;2.67;;;;;;;2.91;67.75;96301.06;6318896;28;20036;-70
2023/03/28 02:43:43;;;;;;;6.50;3.15;;;;;;;2.92;67.82;96295.81;6324635;28;21017;-70
2023/03/28 02:47:20;;;;;;;6.07;3.00;;;;;;;3.01;67.35;96307.56;6319098;28;20118;-69
2023/03/28 02:50:49;;;;;;;5.65;3.00;;;;;;;2.90;68.14;96296.78;6319723;28;20044;-69
2023/03/28 02:54:32;;;;;;;5.75;2.65;;;;;;;2.92;67.86;96295.81;6291745;28;20169;-69
2023/03/28 02:57:45;;;;;;;9.35;3.05;;;;;;;2.92;67.66;96282.00;6209615;28;20041;-69
2023/03/28 03:00:49;;;;;;;6.25;3.63;;;;;;;3.17;66.88;96291.28;6304633;28;20171;-70
2023/03/28 03:03:52;;;;;;;6.32;2.95;;;;;;;3.25;66.73;96294.38;6315239;28;20040;-69
2023/03/28 03:06:54;;;;;;;7.60;3.10;;;;;;;3.35;66.26;96285.25;6308072;28;20048;-69
2023/03/28 03:10:05;;;;;;;4.28;2.10;;;;;;;3.40;66.53;96288.50;6316459;28;20044;-69
2023/03/28 03:13:15;;;;;;;5.20;2.70;;;;;;;3.56;65.55;96284.25;6308967;28;20052;-69
2023/03/28 03:16:19;;;;;;;5.28;3.30;;;;;;;3.52;65.53;96282.72;6311926;28;20054;-70
2023/03/28 03:19:23;;;;;;;8.20;2.95;;;;;;;3.46;65.99;96285.63;6321282;28;20035;-70
2023/03/28 03:22:27;;;;;;;3.63;2.67;;;;;;;3.74;65.16;96276.53;6302656;28;20040;-71
2023/03/28 03:25:31;;;;;;;8.63;3.00;;;;;;;3.64;65.56;96275.25;6312789;28;20044;-69
2023/03/28 03:28:36;;;;;;;5.82;2.42;;;;;;;3.66;65.89;96273.44;6314426;28;20040;-70
2023/03/28 03:31:38;;;;;;;4.18;2.03;;;;;;;3.81;65.43;96273.53;6310061;28;20036;-69
2023/03/28 03:34:42;;;;;;;4.05;2.92;;;;;;;3.76;65.17;96264.28;6320711;28;20296;-69
2023/03/28 03:37:43;;;;;;;3.67;2.63;;;;;;;4.00;64.32;96270.91;6315811;28;20051;-70
2023/03/28 03:40:48;;;;;;;3.85;2.17;;;;;;;4.02;64.57;96276.06;6316615;28;20059;-69
2023/03/28 03:43:50;;;;;;;7.68;2.97;;;;;;;4.07;64.53;96279.25;6314747;28;20051;-71
2023/03/28 03:46:58;;;;;;;4.25;2.20;;;;;;;4.29;63.90;96273.84;6312560;28;20039;-70
2023/03/28 03:50:01;;;;;;;3.75;2.50;;;;;;;4.38;62.85;96255.16;6314752;28;20055;-69
2023/03/28 03:53:05;;;;;;;3.42;2.08;;;;;;;4.46;63.14;96271.25;6312225;28;20044;-69
2023/03/28 03:56:09;;;;;;;4.75;2.78;;;;;;;4.57;62.58;96262.06;6306812;28;20441;-69
2023/03/28 03:59:16;;;;;;;6.15;3.67;;;;;;;4.67;62.17;96266.72;6315005;28;20052;-70
2023/03/28 04:02:20;;;;;;;4.57;2.97;;;;;;;4.61;62.97;96268.78;6317484;28;20032;-69
2023/03/28 04:05:27;;;;;;;7.05;2.85;;;;;;;4.79;62.24;96269.63;6316968;28;20074;-67
2023/03/28 04:08:32;;;;;;;4.05;2.83;;;;;;;4.69;62.59;96272.69;6317299;28;20413;-67
2023/03/28 04:11:36;;;;;;;3.78;2.65;;;;;;;4.93;61.89;96275.81;6316341;28;20135;-68
2023/03/28 04:14:46;;;;;;;4.32;2.75;;;;;;;4.94;61.74;96280.09;6314120;28;20405;-67
2023/03/28 04:17:55;;;;;;;6.03;3.53;;;;;;;5.01;62.03;96271.94;6317106;28;20048;-67
2023/03/28 04:21:01;;;;;;;7.10;2.85;;;;;;;5.27;60.61;96278.41;6316529;28;20031;-68
2023/03/28 04:24:05;;;;;;;7.53;3.10;;;;;;;5.19;61.42;96270.97;6316739;28;20121;-68
2023/03/28 04:27:10;;;;;;;4.32;2.63;;;;;;;5.49;60.40;96272.84;6319011;28;20536;-68
2023/03/28 04:30:12;;;;;;;8.35;3.08;;;;;;;5.54;60.13;96276.06;6305851;28;20093;-68
2023/03/28 04:33:23;;;;;;;7.28;3.17;;;;;;;5.67;59.65;96269.25;6307355;28;20035;-67
2023/03/28 04:36:28;;;;;;;7.38;3.28;;;;;;;5.75;59.11;96274.06;6315712;28;20036;-67
2023/03/28 04:39:29;;;;;;;;;;;;;;;5.90;58.57;96267.13;6312083;28;20392;-68
2023/03/28 04:42:30;;;;;;;3.88;2.42;;;;;;;5.94;58.51;96263.44;6317066;28;19968;-69
2023/03/28 04:45:36;;;;;;;3.58;3.05;;;;;;;5.95;58.19;96259.94;6314874;28;20424;-68
2023/03/28 04:48:40;;;;;;;5.63;3.35;;;;;;;6.06;57.91;96260.16;6307536;28;20044;-67
2023/03/28 04:51:47;;;;;;;7.05;2.45;;;;;;;6.13;57.99;96256.25;6319002;28;20056;-67
2023/03/28 04:54:51;;;;;;;7.38;2.78;;;;;;;6.29;57.77;96259.69;6318763;28;20521;-68
2023/03/28 04:57:55;;;;;;;5.82;2.92;;;;;;;6.46;57.08;96257.88;6316917;28;20173;-72
2023/03/28 05:01:04;;;;;;;4.80;2.63;;;;;;;6.73;56.01;96253.59;6318106;28;20048;-72
2023/03/28 05:04:07;;;;;;;5.47;3.20;;;;;;;6.70;56.23;96245.94;6307520;28;20041;-67
2023/03/28 05:07:09;;;;;;;7.40;3.72;;;;;;;6.80;56.07;96258.50;6311258;28;20053;-68
2023/03/28 05:10:11;;;;;;;5.10;2.55;;;;;;;6.98;55.47;96253.00;6315837;28;20451;-71
2023/03/28 05:13:20;;;;;;;5.53;3.17;;;;;;;7.16;54.87;96258.91;6315687;28;20051;-67
2023/03/28 05:16:24;;;;;;;7.35;3.17;;;;;;;7.32;54.36;96247.47;6314059;28;20059;-65
2023/03/28 05:19:26;;;;;;;4.80;3.08;;;;;;;7.55;53.43;96249.50;6317312;28;20080;-68
2023/03/28 05:22:30;;;;;;;5.07;2.53;;;;;;;7.59;53.40;96235.28;6318059;28;20040;-68
2023/03/28 05:25:36;;;;;;;5.22;2.97;;;;;;;7.65;53.28;96234.91;6317818;28;20413;-66
2023/03/28 05:28:37;;;;;;;6.57;2.28;;;;;;;7.83;53.14;96237.28;6318468;28;20398;-66
2023/03/28 05:31:42;;;;;;;10.05;2.97;;;;;;;8.06;52.64;96231.38;6317995;28;20036;-73
2023/03/28 05:34:51;;;;;;;5.00;2.30;;;;;;;9.09;50.59;96231.59;6320534;28;20421;-75
2023/03/28 05:37:57;;;;;;;4.03;2.78;;;;;;;12.35;43.68;96229.78;6319671;28;20048;-74
2023/03/28 05:41:03;;;;;;;6.57;2.55;;;;;;;15.46;38.27;96226.09;6313836;28;20054;-73
2023/03/28 05:44:10;;;;;;;3.53;1.83;;;;;;;17.97;34.51;96238.41;6318556;28;20366;-74
2023/03/28 05:47:19;;;;;;;3.42;2.25;;;;;;;19.56;31.71;96226.53;6315579;28;20047;-73
2023/03/28 05:50:25;;;;;;;3.83;2.08;;;;;;;21.02;29.27;96225.91;6320451;28;20080;-73
2023/03/28 05:53:34;;;;;;;3.75;2.10;;;;;;;22.55;25.78;96242.28;6319763;28;20456;-74
2023/03/28 05:56:38;;;;;;;5.25;2.45;;;;;;;22.40;24.53;96241.50;6313490;28;20044;-74
2023/03/28 05:59:45;;;;;;;3.08;2.05;;;;;;;22.02;25.91;96240.78;6316748;28;20047;-73
2023/03/28 06:02:50;;;;;;;5.65;2.03;;;;;;;22.38;24.66;96233.66;6316426;28;20047;-74
2023/03/28 06:05:56;;;;;;;5.10;1.70;;;;;;;23.12;24.30;96229.84;6317602;28;20044;-73
2023/03/28 06:09:02;;;;;;;3.58;2.03;;;;;;;23.50;23.20;96227.69;6316924;28;20055;-73
2023/03/28 06:12:06;;;;;;;3.70;1.92;;;;;;;23.66;22.94;96223.84;6311401;28;20055;-73
2023/03/28 06:15:09;;;;;;;5.20;2.10;;;;;;;24.01;23.01;96207.75;6317507;28;20423;-73
2023/03/28 06:18:18;;;;;;;3.90;1.92;;;;;;;24.74;21.23;96215.22;6317765;28;20044;-74
2023/03/28 06:21:21;;;;;;;5.75;1.95;;;;;;;25.36;20.47;96222.13;6320732;28;20036;-73
2023/03/28 06:24:29;;;;;;;5.28;2.08;;;;;;;25.51;20.48;96193.13;6308796;28;20044;-73
2023/03/28 06:27:31;;;;;;;2.38;1.75;;;;;;;25.47;19.69;96191.88;6321662;28;20050;-73
2023/03/28 06:30:38;;;;;;;5.68;2.13;;;;;;;25.17;20.12;96190.69;6312992;28;20043;-74
2023/03/28 06:33:43;;;;;;;4.03;1.98;;;;;;;25.61;19.78;96184.59;6321301;28;20527;-73
2023/03/28 06:36:52;;;;;;;5.65;2.10;;;;;;;26.21;19.52;96187.13;6322354;28;20134;-73
2023/03/28 06:39:57;;;;;;;4.57;2.15;;;;;;;26.31;19.37;96203.69;6322553;28;20496;-72
2023/03/28 06:43:04;;;;;;;4.65;1.83;;;;;;;26.22;18.98;96210.38;6321383;28;20039;-73
2023/03/28 06:46:09;;;;;;;3.08;1.80;;;;;;;26.02;18.93;96217.72;6309142;28;20410;-74
2023/03/28 06:49:19;;;;;;;3.35;1.67;;;;;;;26.15;19.07;96204.97;6323061;28;20059;-74
2023/03/28 06:52:25;;;;;;;2.65;1.48;;;;;;;26.64;18.65;96197.31;6322192;28;20040;-73
2023/03/28 06:55:30;;;;;;;5.18;1.80;;;;;;;27.04;18.71;96191.63;6323907;28;20055;-73
2023/03/28 06:58:35;;;;;;;5.40;1.83;;;;;;;28.39;17.92;96199.00;6322644;28;20063;-75
2023/03/28 07:01:42;;;;;;;3.72;1.70;;;;;;;28.57;17.34;96196.31;6323605;28;20058;-72
2023/03/28 07:04:46;;;;;;;2.35;1.35;;;;;;;27.90;18.18;96179.22;6322078;28;20052;-72
2023/03/28 07:07:54;;;;;;;3.40;1.83;;;;;;;27.84;18.22;96180.13;6318221;28;20052;-71
2023/03/28 07:10:58;;;;;;;2.03;1.40;;;;;;;28.00;17.72;96190.34;6301605;28;20052;-73
2023/03/28 07:14:07;;;;;;;2.38;1.80;;;;;;;28.50;17.54;96184.72;6296100;28;20040;-72
2023/03/28 07:17:15;;;;;;;3.55;1.77;;;;;;;29.48;16.81;96196.97;6295179;28;20517;-72
2023/03/28 07:20:23;;;;;;;2.97;1.70;;;;;;;29.48;16.28;96186.16;6317414;28;20047;-71
2023/03/28 07:23:28;;;;;;;3.28;1.83;;;;;;;29.32;16.88;96182.25;6314312;28;20520;-71
2023/03/28 07:26:35;;;;;;;3.38;1.63;;;;;;;29.22;16.48;96192.03;6309775;28;20047;-68
2023/03/28 07:29:39;;;;;;;2.67;1.50;;;;;;;29.23;16.21;96172.00;6316376;28;20049;-69
2023/03/28 07:32:45;;;;;;;3.75;1.65;;;;;;;27.70;17.29;96161.31;6320340;28;20036;-70
2023/03/28 07:35:51;;;;;;;2.55;1.90;;;;;;;27.05;17.77;96155.47;6318957;28;20055;-70
2023/03/28 07:38:58;;;;;;;5.57;1.70;;;;;;;26.29;18.44;96162.59;6317346;28;20036;-69
2023/03/28 07:42:01;;;;;;;6.82;1.95;;;;;;;26.38;18.42;96153.25;6316328;28;20044;-70
2023/03/28 07:45:03;;;;;;;5.78;2.05;;;;;;;25.71;19.39;96143.75;6316266;28;20421;-70
2023/03/28 07:48:10;;;;;;;3.17;1.50;;;;;;;25.23;19.74;96150.28;6318300;28;20056;-69
2023/03/28 07:51:14;;;;;;;4.07;1.65;;;;;;;24.75;20.14;96150.47;6319854;28;20044;-69
2023/03/28 07:54:17;;;;;;;3.13;1.60;;;;;;;24.16;20.49;96151.97;6306156;28;20052;-70
2023/03/28 07:57:21;;;;;;;6.90;1.80;;;;;;;23.31;21.63;96147.84;6319472;28;20039;-70
2023/03/28 08:00:28;;;;;;;6.80;2.05;;;;;;;23.85;21.36;96139.06;6320192;28;20043;-70
2023/03/28 08:03:32;;;;;;;5.32;1.42;;;;;;;25.73;19.69;96152.44;6313097;28;20264;-70
2023/03/28 08:06:39;;;;;;;3.28;1.42;;;;;;;26.99;18.31;96150.97;6320220;28;20048;-70
2023/03/28 08:09:42;;;;;;;2.60;1.40;;;;;;;27.16;17.94;96146.69;6318332;28;20036;-70
2023/03/28 08:12:46;;;;;;;3.97;1.35;;;;;;;27.16;18.02;96135.88;6307678;28;20040;-70
2023/03/28 08:15:55;;;;;;;3.17;1.30;;;;;;;27.08;18.10;96138.84;6317587;28;20056;-72
2023/03/28 08:19:01;;;;;;;5.65;1.67;;;;;;;27.16;17.85;96133.19;6316582;28;20040;-70
2023/03/28 08:22:03;;;;;;;1.25;1.10;;;;;;;27.44;17.65;96148.09;6313249;28;20040;-70
2023/03/28 08:25:08;;;;;;;1.80;1.20;;;;;;;26.85;17.99;96129.47;6312921;28;20036;-69
2023/03/28 08:28:10;;;;;;;1.98;1.05;;;;;;;26.76;18.08;96122.69;6312571;28;20504;-70
2023/03/28 08:31:22;;;;;;;3.80;1.17;;;;;;;26.37;18.61;96126.47;6316427;28;20048;-68
2023/03/28 08:34:30;;;;;;;7.53;1.70;;;;;;;24.58;19.86;96104.31;6309956;28;20040;-70
2023/03/28 08:37:35;;;;;;;10.77;1.52;;;;;;;24.27;20.21;96112.94;6315987;28;20495;-69
2023/03/28 08:40:48;;;;;;;2.38;1.38;;;;;;;22.95;22.01;96107.72;6315820;28;20086;-70
2023/03/28 08:44:02;;;;;;;2.75;1.30;;;;;;;21.86;23.22;96106.06;6310302;28;20040;-70
2023/03/28 08:47:18;;;;;;;2.70;1.40;;;;;;;22.14;23.52;96105.34;6311313;28;20044;-70
2023/03/28 08:50:28;;;;;;;1.83;1.35;;;;;;;22.29;23.23;96098.09;6300041;28;20047;-69
2023/03/28 08:53:42;;;;;;;2.58;1.83;;;;;;;22.39;23.35;96095.94;6297657;28;20544;-70
2023/03/28 08:56:52;;;;;;;3.35;1.95;;;;;;;22.71;23.21;96088.38;6315156;28;20545;-70
2023/03/28 09:00:23;;;;;;;1.67;1.00;;;;;;;23.52;22.50;96095.91;6316377;28;20040;-71
2023/03/28 09:03:29;;;;;;;4.15;1.08;;;;;;;23.65;21.67;96087.91;6315154;28;20108;-71
2023/03/28 09:06:41;;;;;;;1.67;1.15;;;;;;;21.95;23.83;96101.44;6313410;28;20036;-70
2023/03/28 09:10:06;;;;;;;2.80;1.38;;;;;;;20.60;25.72;96099.78;6316351;28;20044;-70
2023/03/28 09:13:14;;;;;;;2.83;1.63;;;;;;;19.90;26.80;96091.94;6320032;28;20048;-70
2023/03/28 09:16:30;;;;;;;4.78;1.40;;;;;;;19.73;27.37;96085.88;6309582;28;20048;-71
2023/03/28 09:20:12;;;;;;;4.05;1.42;;;;;;;20.38;26.48;96093.44;6313096;28;20036;-69
2023/03/28 09:23:23;;;;;;;3.33;1.50;;;;;;;19.63;27.50;96079.88;6300106;28;20051;-69
2023/03/28 09:26:33;;;;;;;4.03;1.60;;;;;;;19.50;27.64;96069.78;6318924;28;20048;-70
2023/03/28 09:29:41;;;;;;;2.20;1.30;;;;;;;19.36;27.74;96067.84;6318867;28;20462;-70
2023/03/28 09:32:48;;;;;;;5.28;1.73;;;;;;;19.36;27.91;96052.66;6316168;28;20036;-70
2023/03/28 09:35:56;;;;;;;2.38;1.50;;;;;;;19.14;28.16;96056.94;6308784;28;20044;-71
2023/03/28 09:39:10;;;;;;;2.13;1.40;;;;;;;18.58;28.99;96056.91;6307941;28;20033;-70
2023/03/28 09:42:30;;;;;;;3.92;1.38;;;;;;;18.14;29.78;96056.41;6322835;28;20043;-70
2023/03/28 09:45:59;;;;;;;1.63;1.15;;;;;;;17.95;30.45;96058.41;6316759;28;20043;-70
2023/03/28 09:49:01;;;;;;;2.50;1.30;;;;;;;17.88;30.40;96057.41;6313974;28;20037;-70
2023/03/28 09:52:17;;;;;;;3.25;1.60;;;;;;;18.15;30.02;96052.78;6298097;28;20139;-69
2023/03/28 09:55:24;;;;;;;3.53;1.58;;;;;;;18.69;29.59;96066.38;6297976;28;20469;-70
2023/03/28 09:58:55;;;;;;;3.25;1.30;;;;;;;18.97;29.34;96060.69;6313894;28;20044;-69
2023/03/28 10:02:02;;;;;;;1.85;1.40;;;;;;;19.07;29.22;96051.44;6314335;28;20044;-70
2023/03/28 10:05:33;;;;;;;1.42;1.30;;;;;;;19.53;28.71;96048.06;6318476;28;20048;-70
2023/03/28 10:08:39;;;;;;;1.95;1.33;;;;;;;19.63;28.24;96050.53;6318713;28;20516;-70
2023/03/28 10:11:53;;;;;;;1.35;1.20;;;;;;;19.76;28.25;96048.16;6319736;28;20135;-69
2023/03/28 10:14:57;;;;;;;2.63;1.52;;;;;;;19.99;27.51;96058.03;6319666;28;20130;-71
2023/03/28 10:18:03;;;;;;;1.98;1.38;;;;;;;20.08;27.68;96057.78;6316642;28;20032;-69
2023/03/28 10:21:17;;;;;;;2.25;1.27;;;;;;;19.21;28.67;96060.56;6302248;28;20047;-70
2023/03/28 10:24:28;;;;;;;2.97;1.40;;;;;;;19.06;28.74;96047.13;6308458;28;20043;-70
2023/03/28 10:27:38;;;;;;;3.25;1.65;;;;;;;19.03;28.67;96041.31;6305924;28;20039;-71
2023/03/28 10:30:54;;;;;;;5.50;1.45;;;;;;;18.88;29.27;96043.03;6314903;28;20036;-70
2023/03/28 10:34:01;;;;;;;2.20;1.23;;;;;;;17.79;30.00;96042.44;6320349;28;20036;-71
2023/03/28 10:37:20;;;;;;;2.17;1.42;;;;;;;17.17;31.21;96041.91;6315700;28;20425;-70
2023/03/28 10:40:28;;;;;;;4.25;1.88;;;;;;;17.03;31.87;96036.22;6320628;28;20059;-70
2023/03/28 10:43:36;;;;;;;2.63;1.58;;;;;;;17.57;30.89;96038.53;6312138;28;20056;-70
2023/03/28 10:46:40;;;;;;;1.95;1.63;;;;;;;17.90;30.36;96036.78;6308899;28;20566;-70
2023/03/28 10:49:49;;;;;;;3.42;1.52;;;;;;;18.50;29.82;96029.44;6316848;28;20497;-70
2023/03/28 10:52:51;;;;;;;3.88;1.80;;;;;;;18.49;29.73;96022.47;6316632;28;20051;-70
2023/03/28 10:56:07;;;;;;;2.85;1.88;;;;;;;18.28;29.88;96018.47;6318951;28;20070;-70
2023/03/28 10:59:46;;;;;;;1.55;1.20;;;;;;;18.26;30.52;96036.47;6315915;28;20516;-70
2023/03/28 11:03:15;;;;;;;4.18;1.33;;;;;;;18.01;30.52;96018.84;6318666;28;20059;-70
2023/03/28 11:06:22;;;;;;;;;;;;;;;18.11;30.19;96024.81;6308909;28;20126;-72
2023/03/28 11:09:46;;;;;;;2.78;1.67;;;;;;;16.92;32.22;96020.53;6314040;28;19931;-69
2023/03/28 11:13:25;;;;;;;2.97;1.38;;;;;;;16.67;32.93;96018.72;6320353;28;20052;-70
2023/03/28 11:16:41;;;;;;;2.65;1.40;;;;;;;15.96;33.76;96020.59;6305975;28;20051;-70
2023/03/28 11:19:51;;;;;;;2.67;1.67;;;;;;;15.38;34.84;96015.72;6310144;28;20477;-71
2023/03/28 11:23:25;;;;;;;2.85;1.80;;;;;;;14.98;35.30;96003.72;6318813;28;20056;-71
2023/03/28 11:26:38;;;;;;;3.58;1.58;;;;;;;14.57;36.09;96011.97;6320165;28;20052;-71
2023/03/28 11:29:53;;;;;;;3.03;1.48;;;;;;;14.00;37.28;96000.53;6315577;28;20067;-72
2023/03/28 11:33:13;;;;;;;1.35;1.15;;;;;;;14.04;37.42;95990.50;6316408;28;20036;-71
2023/03/28 11:36:21;;;;;;;4.70;1.50;;;;;;;13.99;37.50;95990.94;6307389;28;20174;-71
2023/03/28 11:39:33;;;;;;;1.63;1.25;;;;;;;13.77;38.01;95997.38;6307699;28;20493;-70
2023/03/28 11:42:50;;;;;;;2.45;1.90;;;;;;;13.43;38.97;95995.16;6316702;28;21195;-71
2023/03/28 11:46:03;;;;;;;4.00;1.38;;;;;;;13.28;39.50;95985.97;6298889;28;20433;-70
2023/03/28 11:49:22;;;;;;;3.60;1.75;;;;;;;13.09;39.66;95986.75;6305559;28;20051;-71
2023/03/28 11:52:41;;;;;;;3.42;1.50;;;;;;;12.81;40.10;95983.06;6298391;28;20048;-71
2023/03/28 11:55:54;;;;;;;3.30;1.75;;;;;;;12.71;40.64;95987.47;6316499;28;20066;-70
2023/03/28 11:59:05;;;;;;;2.90;1.88;;;;;;;12.62;40.77;95983.00;6311481;28;20055;-70
2023/03/28 12:02:31;;;;;;;4.68;2.10;;;;;;;12.46;41.27;95983.50;6303676;28;20532;-70
2023/03/28 12:05:49;;;;;;;5.43;2.10;;;;;;;12.34;41.65;95982.75;6311328;28;20040;-72
2023/03/28 12:09:05;;;;;;;4.95;1.77;;;;;;;12.33;41.98;95979.28;6306289;28;20044;-71
2023/03/28 12:12:15;;;;;;;4.07;1.70;;;;;;;12.24;41.98;95984.53;6319123;28;20536;-71
2023/03/28 12:15:20;;;;;;;2.13;1.67;;;;;;;12.10;42.35;95968.06;6313947;28;20048;-71
2023/03/28 12:18:26;;;;;;;5.72;1.80;;;;;;;12.04;42.46;95978.31;6318224;28;20036;-70
2023/03/28 12:21:37;;;;;;;2.22;1.77;;;;;;;12.02;42.57;95983.69;6309805;28;20043;-71
2023/03/28 12:25:01;;;;;;;3.20;1.60;;;;;;;11.71;43.26;95971.41;6300661;28;20453;-71
2023/03/28 12:28:08;;;;;;;2.25;1.75;;;;;;;11.58;43.56;95974.25;6313443;28;20040;-72
2023/03/28 12:31:56;;;;;;;2.55;1.50;;;;;;;11.36;44.21;95989.19;6303765;28;20075;-70
2023/03/28 12:35:06;;;;;;;3.35;2.03;;;;;;;11.14;44.85;95976.09;6313461;28;20044;-71
2023/03/28 12:38:19;;;;;;;3.67;1.65;;;;;;;10.87;45.51;95960.72;6317474;28;20128;-71
2023/03/28 12:41:29;;;;;;;3.45;1.92;;;;;;;10.71;45.74;95961.97;6315899;28;20497;-71
2023/03/28 12:45:08;;;;;;;1.73;1.58;;;;;;;10.91;45.41;95959.53;6299219;28;20541;-71
2023/03/28 12:48:38;;;;;;;2.65;1.55;;;;;;;10.73;45.95;95969.75;6315173;28;20047;-71
2023/03/28 12:51:52;;;;;;;1.83;1.30;;;;;;;10.56;46.56;95973.72;6311239;28;20071;-71
2023/03/28 12:54:58;;;;;;;3.10;2.03;;;;;;;10.29;47.17;95985.44;6316800;28;20055;-70
2023/03/28 12:58:21;;;;;;;3.65;1.88;;;;;;;10.28;47.40;95981.13;6310555;28;20128;-70
2023/03/28 13:01:26;;;;;;;4.95;1.80;;;;;;;10.05;48.05;95985.53;6317715;28;20048;-71
2023/03/28 13:04:44;;;;;;;2.25;1.70;;;;;;;9.88;48.49;95984.19;6314675;28;20039;-71
2023/03/28 13:08:16;;;;;;;2.40;1.80;;;;;;;9.75;49.10;95993.13;6305117;28;20056;-72
2023/03/28 13:11:32;;;;;;;2.55;2.00;;;;;;;9.66;49.46;95998.09;6294060;28;20052;-71
2023/03/28 13:14:39;;;;;;;2.65;2.35;;;;;;;9.33;50.08;95988.31;6304401;28;20043;-72
2023/03/28 13:18:07;;;;;;;3.25;2.38;;;;;;;9.32;50.48;95993.69;6303703;28;20047;-71
2023/03/28 13:21:11;;;;;;;4.88;2.80;;;;;;;9.12;50.89;96000.41;6308139;28;20059;-71
2023/03/28 13:24:23;;;;;;;3.95;2.47;;;;;;;9.06;51.11;96001.69;6314414;28;20428;-71
2023/03/28 13:27:31;;;;;;;5.82;2.42;;;;;;;8.97;51.54;96003.19;6316548;28;20044;-72
2023/03/28 13:30:39;;;;;;;3.58;2.00;;;;;;;8.86;51.65;95992.66;6316904;28;20040;-71
2023/03/28 13:33:52;;;;;;;4.78;2.67;;;;;;;8.88;51.67;96008.25;6305857;28;20049;-70
2023/03/28 13:37:37;;;;;;;6.53;2.50;;;;;;;8.64;52.23;96001.19;6318061;28;20048;-71
2023/03/28 13:40:50;;;;;;;3.22;2.22;;;;;;;8.60;52.55;96009.38;6308313;28;20056;-70
2023/03/28 13:43:55;;;;;;;4.97;2.83;;;;;;;8.42;53.00;96006.28;6293228;28;20409;-72
2023/03/28 13:47:01;;;;;;;3.03;2.28;;;;;;;8.49;52.87;96003.13;6309285;28;20429;-74
2023/03/28 13:50:31;;;;;;;4.55;2.58;;;;;;;8.49;53.03;96008.38;6307894;28;20210;-73
2023/03/28 13:53:39;;;;;;;3.42;2.38;;;;;;;8.22;53.59;96002.41;6314808;28;20044;-75
2023/03/28 13:56:50;;;;;;;4.80;2.55;;;;;;;8.09;53.70;95995.38;6331843;28;20508;-74
2023/03/28 14:00:04;;;;;;;4.93;2.60;;;;;;;8.27;53.56;96008.16;6341090;28;20062;-72
2023/03/28 14:03:14;;;;;;;4.85;2.50;;;;;;;8.10;53.95;96002.31;6319621;28;20043;-69
2023/03/28 14:06:28;;;;;;;2.08;1.52;;;;;;;8.05;53.93;95999.16;6313377;28;20498;-72
2023/03/28 14:09:35;;;;;;;3.55;1.98;;;;;;;8.07;53.98;96013.00;6317570;28;20044;-78
2023/03/28 14:12:37;;;;;;;4.30;2.10;;;;;;;8.08;53.85;96004.19;6301959;28;20541;-74
2023/03/28 14:15:39;;;;;;;1.70;1.58;;;;;;;7.97;54.19;96017.16;6321557;28;20147;-74
2023/03/28 14:18:49;;;;;;;3.78;2.05;;;;;;;8.01;54.08;96018.66;6322865;28;20067;-74
2023/03/28 14:21:56;;;;;;;2.78;1.90;;;;;;;7.92;54.89;96021.03;6315828;28;20044;-74
2023/03/28 14:25:05;;;;;;;3.10;1.88;;;;;;;7.94;54.45;96029.66;6308861;28;20455;-73
2023/03/28 14:28:07;;;;;;;3.00;2.40;;;;;;;7.95;54.41;96032.16;6297599;28;20052;-74
2023/03/28 14:31:32;;;;;;;5.57;2.50;;;;;;;7.98;54.22;96038.97;6297943;28;20090;-73
2023/03/28 14:34:43;;;;;;;3.67;2.00;;;;;;;8.01;54.22;96039.63;6320614;28;20044;-73
2023/03/28 14:37:50;;;;;;;5.05;2.33;;;;;;;7.91;54.47;96028.06;6322341;28;20044;-74
2023/03/28 14:41:03;;;;;;;4.05;2.55;;;;;;;7.99;54.25;96031.00;6317977;28;20040;-73
2023/03/28 14:44:11;;;;;;;5.47;2.28;;;;;;;7.94;54.69;96037.50;6296963;28;20048;-73
2023/03/28 14:47:34;;;;;;;4.80;2.40;;;;;;;7.76;55.13;96039.59;6296041;28;20426;-73
2023/03/28 14:50:41;;;;;;;5.13;2.40;;;;;;;7.82;55.14;96047.03;6304761;28;20054;-73
2023/03/28 14:53:45;;;;;;;;;;;;;;;7.91;55.06;96046.41;6322172;28;20366;-73
2023/03/28 14:56:49;;;;;;;7.78;3.78;;;;;;;7.68;55.87;96052.34;6320321;28;19920;-73
2023/03/28 14:59:57;;;;;;;4.10;2.72;;;;;;;7.73;55.94;96045.00;6302033;28;20077;-74
2023/03/28 15:02:59;;;;;;;5.20;2.88;;;;;;;7.58;55.94;96046.88;6321684;28;20067;-73